createdAt,value
2019-05-25T00:00:42.949Z,13.13
2019-05-25T00:03:11.746Z,13.00
2019-05-25T00:05:38.955Z,13.45
2019-05-25T00:08:06.201Z,14.47
2019-05-25T00:10:33.479Z,14.30
2019-05-25T00:13:02.063Z,13.68
2019-05-25T00:15:29.302Z,14.03
2019-05-25T00:17:56.700Z,14.68
2019-05-25T00:20:23.912Z,14.55
2019-05-25T00:22:51.159Z,13.53
2019-05-25T00:25:18.601Z,13.62
2019-05-25T00:27:45.942Z,14.20
2019-05-25T00:30:13.184Z,14.15
2019-05-25T00:32:40.464Z,13.53
2019-05-25T00:35:07.869Z,14.10
2019-05-25T00:37:35.129Z,13.43
2019-05-25T00:40:03.739Z,13.53
2019-05-25T00:42:31.003Z,14.03
2019-05-25T00:44:58.248Z,14.80
2019-05-25T00:47:25.549Z,13.75
2019-05-25T00:49:52.765Z,15.58
2019-05-25T00:52:20.272Z,13.13
2019-05-25T00:54:47.663Z,14.00
2019-05-25T00:57:14.967Z,13.78
2019-05-25T00:59:44.470Z,13.88
2019-05-25T01:02:12.432Z,14.15
2019-05-25T01:04:42.725Z,13.88
2019-05-25T01:07:10.261Z,13.78
2019-05-25T01:09:37.572Z,16.07
2019-05-25T01:12:05.133Z,15.03
2019-05-25T01:14:32.598Z,13.75
2019-05-25T01:17:01.883Z,13.62
2019-05-25T01:19:29.138Z,14.68
2019-05-25T01:21:56.423Z,14.90
2019-05-25T01:24:23.770Z,14.47
2019-05-25T01:26:51.020Z,14.13
2019-05-25T01:29:21.083Z,13.60
2019-05-25T01:31:49.757Z,13.98
2019-05-25T01:34:16.999Z,15.45
2019-05-25T01:36:44.245Z,14.28
2019-05-25T01:39:11.537Z,15.55
2019-05-25T01:41:38.795Z,14.87
2019-05-25T01:44:06.623Z,14.43
2019-05-25T01:46:33.933Z,15.05
2019-05-25T01:49:01.136Z,15.10
2019-05-25T01:51:28.393Z,15.63
2019-05-25T01:53:55.960Z,15.68
2019-05-25T01:56:23.212Z,14.73
2019-05-25T01:58:50.462Z,13.95
2019-05-25T02:01:17.826Z,15.10
2019-05-25T02:03:45.051Z,15.25
2019-05-25T02:06:12.301Z,14.70
2019-05-25T02:08:39.595Z,15.03
2019-05-25T02:11:06.869Z,13.20
2019-05-25T02:13:34.098Z,12.78
2019-05-25T02:16:01.407Z,13.93
2019-05-25T02:18:29.275Z,14.23
2019-05-25T02:20:56.540Z,14.25
2019-05-25T02:23:23.816Z,13.85
2019-05-25T02:25:51.070Z,13.20
2019-05-25T02:28:18.292Z,14.15
2019-05-25T02:30:45.982Z,13.72
2019-05-25T02:33:13.310Z,13.60
2019-05-25T02:35:40.648Z,14.45
2019-05-25T02:38:07.954Z,14.20
2019-05-25T02:40:35.198Z,13.85
2019-05-25T02:43:02.413Z,13.03
2019-05-25T02:45:29.797Z,13.28
2019-05-25T02:47:57.062Z,12.45
2019-05-25T02:50:24.282Z,13.40
2019-05-25T02:52:51.592Z,13.40
2019-05-25T02:55:33.201Z,12.93
2019-05-25T02:57:48.090Z,12.90
2019-05-25T03:00:15.415Z,13.00
2019-05-25T03:02:42.704Z,12.70
2019-05-25T03:05:11.903Z,13.22
2019-05-25T03:07:39.817Z,12.93
2019-05-25T03:10:07.047Z,12.93
2019-05-25T03:12:35.368Z,12.73
2019-05-25T03:15:04.537Z,12.50
2019-05-25T03:17:31.917Z,13.20
2019-05-25T03:19:59.291Z,12.45
2019-05-25T03:22:27.694Z,12.13
2019-05-25T03:24:55.086Z,12.25
2019-05-25T03:27:22.315Z,13.05
2019-05-25T03:29:49.624Z,12.70
2019-05-25T03:32:17.464Z,13.58
2019-05-25T03:34:45.722Z,13.30
2019-05-25T03:37:13.058Z,13.38
2019-05-25T03:39:40.308Z,14.63
2019-05-25T03:42:08.074Z,14.78
2019-05-25T03:44:35.384Z,14.50
2019-05-25T03:47:02.604Z,15.72
2019-05-25T03:49:29.890Z,15.18
2019-05-25T03:51:57.171Z,16.23
2019-05-25T03:54:24.620Z,14.93
2019-05-25T03:56:52.068Z,15.30
2019-05-25T03:59:21.847Z,15.48
2019-05-25T04:01:52.666Z,14.15
2019-05-25T04:04:32.827Z,14.38
2019-05-25T04:07:01.196Z,15.13
2019-05-25T04:09:28.964Z,13.53
2019-05-25T04:11:57.921Z,14.75
2019-05-25T04:14:25.474Z,14.47
2019-05-25T04:16:53.018Z,14.58
2019-05-25T04:19:20.898Z,14.25
2019-05-25T04:21:48.182Z,14.10
2019-05-25T04:24:15.746Z,13.60
2019-05-25T04:26:43.715Z,13.70
2019-05-25T04:29:10.960Z,14.35
2019-05-25T04:31:38.172Z,13.20
2019-05-25T04:34:07.021Z,12.58
2019-05-25T04:36:34.286Z,12.03
2019-05-25T04:39:01.508Z,11.25
2019-05-25T04:41:28.858Z,11.95
2019-05-25T04:43:56.122Z,10.90
2019-05-25T04:46:23.392Z,12.37
2019-05-25T04:48:50.845Z,10.43
2019-05-25T04:51:18.158Z,10.75
2019-05-25T04:53:45.550Z,8.53
2019-05-25T04:56:12.860Z,9.58
2019-05-25T04:58:40.084Z,8.90
2019-05-25T05:01:07.337Z,9.18
2019-05-25T05:03:34.616Z,8.68
2019-05-25T05:06:01.895Z,9.30
2019-05-25T05:08:29.108Z,8.18
2019-05-25T05:10:56.392Z,8.93
2019-05-25T05:13:24.489Z,9.20
2019-05-25T05:15:51.744Z,7.85
2019-05-25T05:18:19.027Z,7.37
2019-05-25T05:20:46.614Z,6.45
2019-05-25T05:23:13.913Z,6.45
2019-05-25T05:25:41.221Z,7.50
2019-05-25T05:28:08.486Z,6.83
2019-05-25T05:30:35.725Z,7.12
2019-05-25T05:33:02.990Z,6.30
2019-05-25T05:35:31.046Z,5.60
2019-05-25T05:38:00.905Z,5.47
2019-05-25T05:40:28.255Z,5.70
2019-05-25T05:42:56.275Z,4.22
2019-05-25T05:45:23.575Z,4.50
2019-05-25T05:47:50.864Z,5.45
2019-05-25T05:50:18.098Z,4.75
2019-05-25T05:52:45.374Z,4.30
2019-05-25T05:55:12.670Z,4.33
2019-05-25T05:57:39.903Z,4.60
2019-05-25T06:00:07.983Z,3.95
2019-05-25T06:02:35.265Z,4.08
2019-05-25T06:05:03.511Z,4.35
2019-05-25T06:07:30.827Z,4.00
2019-05-25T06:09:58.527Z,3.87
2019-05-25T06:12:25.865Z,3.52
2019-05-25T06:14:53.662Z,4.15
2019-05-25T06:17:21.684Z,4.20
2019-05-25T06:19:50.385Z,3.70
2019-05-25T06:22:17.611Z,3.95
2019-05-25T06:24:44.900Z,3.58
2019-05-25T06:27:26.486Z,3.42
2019-05-25T06:29:41.282Z,3.37
2019-05-25T06:32:08.932Z,3.17
2019-05-25T06:34:36.169Z,3.45
2019-05-25T06:37:03.837Z,3.00
2019-05-25T06:39:31.196Z,2.50
2019-05-25T06:42:00.251Z,3.25
2019-05-25T06:44:27.498Z,3.20
2019-05-25T06:46:54.816Z,2.85
2019-05-25T06:49:22.107Z,3.17
2019-05-25T06:51:49.643Z,3.40
2019-05-25T06:54:16.969Z,3.00
2019-05-25T06:56:44.214Z,2.85
2019-05-25T06:59:11.445Z,3.40
2019-05-25T07:01:38.795Z,3.05
2019-05-25T07:04:06.281Z,3.08
2019-05-25T07:06:33.483Z,3.50
2019-05-25T07:09:00.810Z,3.60
2019-05-25T07:11:28.067Z,2.87
2019-05-25T07:13:55.520Z,3.90
2019-05-25T07:16:23.115Z,3.95
2019-05-25T07:18:50.463Z,4.15
2019-05-25T07:21:18.090Z,4.35
2019-05-25T07:23:45.596Z,4.15
2019-05-25T07:26:15.974Z,4.03
2019-05-25T07:28:51.938Z,4.30
2019-05-25T07:31:24.831Z,4.30
2019-05-25T07:33:53.679Z,3.65
2019-05-25T07:36:22.741Z,3.92
2019-05-25T07:39:00.778Z,3.37
2019-05-25T07:41:29.400Z,3.10
2019-05-25T07:43:56.804Z,3.10
2019-05-25T07:46:33.833Z,3.20
2019-05-25T07:49:02.547Z,3.55
2019-05-25T07:51:34.361Z,2.92
2019-05-25T07:54:03.029Z,3.10
2019-05-25T07:56:34.328Z,3.30
2019-05-25T07:59:03.169Z,3.05
2019-05-25T08:01:30.486Z,2.30
2019-05-25T08:03:57.741Z,3.20
2019-05-25T08:06:25.241Z,2.50
2019-05-25T08:08:52.489Z,2.58
2019-05-25T08:11:19.694Z,2.67
2019-05-25T08:13:47.358Z,2.27
2019-05-25T08:16:16.086Z,2.50
2019-05-25T08:18:43.329Z,2.08
2019-05-25T08:21:10.626Z,2.15
2019-05-25T08:23:37.925Z,1.95
2019-05-25T08:26:05.552Z,2.20
2019-05-25T08:28:33.405Z,1.98
2019-05-25T08:31:01.576Z,1.70
2019-05-25T08:33:29.972Z,2.00
2019-05-25T08:35:57.282Z,1.90
2019-05-25T08:38:24.538Z,1.85
2019-05-25T08:40:53.180Z,2.17
2019-05-25T08:43:20.610Z,2.08
2019-05-25T08:45:47.984Z,2.30
2019-05-25T08:48:15.321Z,2.10
2019-05-25T08:50:42.659Z,2.10
2019-05-25T08:53:31.161Z,2.25
2019-05-25T08:56:00.461Z,2.65
2019-05-25T08:58:30.023Z,2.12
2019-05-25T09:00:57.418Z,2.22
2019-05-25T09:03:24.758Z,2.15
2019-05-25T09:05:52.394Z,2.80
2019-05-25T09:08:21.380Z,2.90
2019-05-25T09:10:48.617Z,2.17
2019-05-25T09:13:16.888Z,2.27
2019-05-25T09:15:44.199Z,2.50
2019-05-25T09:18:11.441Z,2.35
2019-05-25T09:20:42.785Z,2.10
2019-05-25T09:23:10.086Z,4.08
2019-05-25T09:25:37.332Z,4.47
2019-05-25T09:28:04.994Z,13.08
2019-05-25T09:30:32.269Z,2.25
2019-05-25T09:32:59.554Z,2.65
2019-05-25T09:35:26.812Z,2.47
2019-05-25T09:37:54.096Z,3.10
2019-05-25T09:40:21.349Z,2.60
2019-05-25T09:42:49.034Z,3.02
2019-05-25T09:45:16.523Z,3.00
2019-05-25T09:47:43.767Z,3.08
2019-05-25T09:50:11.038Z,2.90
2019-05-25T09:52:39.318Z,3.20
2019-05-25T09:55:08.379Z,2.72
2019-05-25T09:57:35.973Z,2.60
2019-05-25T10:00:07.017Z,2.72
2019-05-25T10:02:34.375Z,2.98
2019-05-25T10:05:01.596Z,2.70
2019-05-25T10:07:28.911Z,2.80
2019-05-25T10:09:56.142Z,2.85
2019-05-25T10:12:23.390Z,2.60
2019-05-25T10:14:51.924Z,2.92
2019-05-25T10:17:19.203Z,2.87
2019-05-25T10:19:46.508Z,2.90
2019-05-25T10:22:13.770Z,2.85
2019-05-25T10:24:40.984Z,2.65
2019-05-25T10:27:08.264Z,2.80
2019-05-25T10:29:37.602Z,2.80
2019-05-25T10:32:04.716Z,2.83
2019-05-25T10:34:31.943Z,6.83
2019-05-25T10:36:59.263Z,3.52
2019-05-25T10:39:32.348Z,4.20
2019-05-25T10:41:59.878Z,2.77
2019-05-25T10:44:27.420Z,3.00
2019-05-25T10:46:54.683Z,3.95
2019-05-25T10:49:22.008Z,3.00
2019-05-25T10:51:49.241Z,3.75
2019-05-25T10:54:16.547Z,3.08
2019-05-25T10:56:49.623Z,3.35
2019-05-25T10:59:16.915Z,3.05
2019-05-25T11:01:44.144Z,2.55
2019-05-25T11:04:11.539Z,2.67
2019-05-25T11:06:39.759Z,2.95
2019-05-25T11:09:06.994Z,3.52
2019-05-25T11:11:34.626Z,2.67
2019-05-25T11:14:01.850Z,2.37
2019-05-25T11:16:29.115Z,2.80
2019-05-25T11:18:56.392Z,3.12
2019-05-25T11:21:23.660Z,3.50
2019-05-25T11:23:51.119Z,2.87
2019-05-25T11:26:18.425Z,2.90
2019-05-25T11:28:45.741Z,3.67
2019-05-25T11:31:15.184Z,2.98
2019-05-25T11:33:44.496Z,3.22
2019-05-25T11:36:11.834Z,3.10
2019-05-25T11:38:39.085Z,2.98
2019-05-25T11:41:06.549Z,3.45
2019-05-25T11:43:33.867Z,3.35
2019-05-25T11:46:01.557Z,2.98
2019-05-25T11:48:28.833Z,3.62
2019-05-25T11:50:57.179Z,3.02
2019-05-25T11:53:24.450Z,2.87
2019-05-25T11:55:51.750Z,3.05
2019-05-25T11:58:19.003Z,2.85
2019-05-25T12:00:46.245Z,3.15
2019-05-25T12:03:13.561Z,2.83
2019-05-25T12:05:40.834Z,3.00
2019-05-25T12:08:08.293Z,2.92
2019-05-25T12:10:35.569Z,3.15
2019-05-25T12:13:02.820Z,3.60
2019-05-25T12:15:31.533Z,2.83
2019-05-25T12:18:01.349Z,2.83
2019-05-25T12:20:28.440Z,3.10
2019-05-25T12:22:55.704Z,3.22
2019-05-25T12:25:22.987Z,3.27
2019-05-25T12:27:50.359Z,2.62
2019-05-25T12:30:40.281Z,3.35
2019-05-25T12:32:59.063Z,3.30
2019-05-25T12:35:26.256Z,2.92
2019-05-25T12:37:53.475Z,2.83
2019-05-25T12:40:20.852Z,2.85
2019-05-25T12:42:48.074Z,2.92
2019-05-25T12:45:15.400Z,3.17
2019-05-25T12:47:48.978Z,3.27
2019-05-25T12:50:16.693Z,3.75
2019-05-25T12:52:45.545Z,3.62
2019-05-25T12:55:13.372Z,3.67
2019-05-25T12:57:40.613Z,3.47
2019-05-25T13:00:16.560Z,6.00
2019-05-25T13:02:38.036Z,5.45
2019-05-25T13:05:09.474Z,5.70
2019-05-25T13:07:36.852Z,5.55
2019-05-25T13:10:08.271Z,4.47
2019-05-25T13:12:35.623Z,5.60
2019-05-25T13:17:55.963Z,6.25
2019-05-25T13:20:23.256Z,6.22
2019-05-25T13:22:50.663Z,5.70
2019-05-25T13:25:20.291Z,5.65
2019-05-25T13:27:53.103Z,8.65
2019-05-25T13:30:28.141Z,5.50
2019-05-25T13:32:55.460Z,5.03
2019-05-25T13:35:22.647Z,5.15
2019-05-25T13:37:52.818Z,5.08
2019-05-25T13:40:20.068Z,5.17
2019-05-25T13:42:50.716Z,5.20
2019-05-25T13:45:26.152Z,5.33
2019-05-25T13:48:01.604Z,5.65
2019-05-25T13:50:29.206Z,6.80
2019-05-25T13:52:56.613Z,5.47
2019-05-25T13:55:26.060Z,7.67
2019-05-25T13:58:17.857Z,5.03
2019-05-25T14:00:49.662Z,7.22
2019-05-25T14:03:16.938Z,5.97
2019-05-25T14:05:44.283Z,5.70
2019-05-25T14:08:23.720Z,5.50
2019-05-25T14:10:51.203Z,6.20
2019-05-25T14:13:28.178Z,6.20
2019-05-25T14:16:31.306Z,5.75
2019-05-25T14:18:43.930Z,6.22
2019-05-25T14:21:11.252Z,7.53
2019-05-25T14:23:38.520Z,8.08
2019-05-25T14:26:06.827Z,8.35
2019-05-25T14:28:36.564Z,6.62
2019-05-25T14:34:21.533Z,6.97
2019-05-25T14:36:48.830Z,7.22
2019-05-25T14:39:16.142Z,7.20
2019-05-25T14:41:53.435Z,7.08
2019-05-25T14:44:21.224Z,6.70
2019-05-25T14:46:55.767Z,5.97
2019-05-25T14:50:12.733Z,5.30
2019-05-25T14:52:01.207Z,6.45
2019-05-25T14:54:34.566Z,6.78
2019-05-25T14:57:01.903Z,6.20
2019-05-25T15:02:35.973Z,4.58
2019-05-25T15:05:15.401Z,4.47
2019-05-25T15:07:47.439Z,4.25
2019-05-25T15:10:14.764Z,4.97
2019-05-25T15:12:42.149Z,3.95
2019-05-25T15:15:10.051Z,4.45
2019-05-25T15:17:37.751Z,2.98
2019-05-25T15:20:07.759Z,2.50
2019-05-25T15:22:35.019Z,2.62
2019-05-25T15:25:04.124Z,3.40
2019-05-25T15:27:31.419Z,4.25
2019-05-25T15:30:01.621Z,3.45
2019-05-25T15:32:30.131Z,2.22
2019-05-25T15:34:57.789Z,2.20
2019-05-25T15:37:25.890Z,2.65
2019-05-25T15:39:56.585Z,2.65
2019-05-25T15:42:23.817Z,2.60
2019-05-25T15:44:51.202Z,3.87
2019-05-25T15:47:20.510Z,2.58
2019-05-25T15:49:49.704Z,2.95
2019-05-25T15:52:16.956Z,2.55
2019-05-25T15:54:46.079Z,2.80
2019-05-25T15:57:13.295Z,2.67
2019-05-25T15:59:40.534Z,2.90
2019-05-25T16:02:08.030Z,2.20
2019-05-25T16:04:35.747Z,3.10
2019-05-25T16:07:04.959Z,2.40
2019-05-25T16:09:32.398Z,2.40
2019-05-25T16:11:59.718Z,2.30
2019-05-25T16:14:35.080Z,2.12
2019-05-25T16:17:02.391Z,2.37
2019-05-25T16:19:29.783Z,2.17
2019-05-25T16:21:57.137Z,2.67
2019-05-25T16:24:24.605Z,2.60
2019-05-25T16:26:55.565Z,3.00
2019-05-25T16:29:23.142Z,4.30
2019-05-25T16:31:50.434Z,3.20
2019-05-25T16:34:17.980Z,3.22
2019-05-25T16:36:46.701Z,3.12
2019-05-25T16:39:14.028Z,2.58
2019-05-25T16:41:44.270Z,3.08
2019-05-25T16:44:16.317Z,26.02
2019-05-25T16:46:51.127Z,4.83
2019-05-25T16:49:19.207Z,3.30
2019-05-25T16:51:50.621Z,3.12
2019-05-25T17:00:42.936Z,2.83
2019-05-25T17:03:45.125Z,2.83
2019-05-25T17:09:36.302Z,2.95
2019-05-25T17:12:10.803Z,2.62
2019-05-25T17:14:45.096Z,3.10
2019-05-25T17:17:37.543Z,2.90
2019-05-25T17:20:02.764Z,2.67
2019-05-25T17:22:31.082Z,2.55
2019-05-25T17:25:00.468Z,19.95
2019-05-25T17:27:37.057Z,19.60
2019-05-25T17:30:04.976Z,4.10
2019-05-25T17:32:32.346Z,4.00
2019-05-25T17:34:59.638Z,28.17
2019-05-25T17:37:27.090Z,32.42
2019-05-25T17:39:57.140Z,3.70
2019-05-25T17:42:27.463Z,3.43
2019-05-25T17:44:54.770Z,4.40
2019-05-25T17:47:22.310Z,5.12
2019-05-25T17:49:52.818Z,4.40
2019-05-25T17:52:25.210Z,3.42
2019-05-25T17:54:53.287Z,5.47
2019-05-25T17:57:20.807Z,6.83
2019-05-25T17:59:53.105Z,4.78
2019-05-25T18:02:27.463Z,3.25
2019-05-25T18:05:00.606Z,2.70
2019-05-25T18:07:38.001Z,2.60
2019-05-25T18:10:14.737Z,3.02
2019-05-25T18:12:42.205Z,9.25
2019-05-25T18:15:09.429Z,8.03
2019-05-25T18:30:10.663Z,4.70
2019-05-25T18:32:46.253Z,6.00
2019-05-25T18:35:21.586Z,5.05
2019-05-25T18:37:53.246Z,3.27
2019-05-25T18:40:24.270Z,2.90
2019-05-25T18:42:57.683Z,2.92
2019-05-25T18:45:25.631Z,3.55
2019-05-25T18:47:53.289Z,3.50
2019-05-25T18:50:30.341Z,4.22
2019-05-25T18:53:10.438Z,2.98
2019-05-25T18:55:49.510Z,2.83
2019-05-25T18:58:28.299Z,3.02
2019-05-25T19:00:56.066Z,2.87
2019-05-25T19:03:41.047Z,2.72
2019-05-25T19:09:28.744Z,3.00
2019-05-25T19:11:58.423Z,2.70
2019-05-25T19:14:37.707Z,3.00
2019-05-25T19:17:24.114Z,2.95
2019-05-25T19:22:43.398Z,2.92
2019-05-25T19:28:14.786Z,3.40
2019-05-25T19:30:57.862Z,3.30
2019-05-25T19:33:40.406Z,3.83
2019-05-25T19:36:14.873Z,3.65
2019-05-25T19:42:11.425Z,3.60
2019-05-25T19:44:41.110Z,3.55
2019-05-25T19:47:13.294Z,3.40
2019-05-25T19:50:04.404Z,3.44
2019-05-25T19:52:29.155Z,3.50
2019-05-25T19:54:59.679Z,3.15
2019-05-25T19:57:28.262Z,3.30
2019-05-25T19:59:59.429Z,4.12
2019-05-25T20:02:32.894Z,3.33
2019-05-25T20:05:15.069Z,3.08
2019-05-25T20:07:31.860Z,2.95
2019-05-25T20:10:01.991Z,3.23
2019-05-25T20:12:32.355Z,3.00
2019-05-25T20:15:02.228Z,3.17
2019-05-25T20:17:31.661Z,3.37
2019-05-25T20:20:08.992Z,3.70
2019-05-25T20:22:40.906Z,3.92
2019-05-25T20:25:11.207Z,3.60
2019-05-25T20:27:43.691Z,4.00
2019-05-25T20:30:14.284Z,4.10
2019-05-25T20:32:41.764Z,3.40
2019-05-25T20:35:09.232Z,3.62
2019-05-25T20:37:36.619Z,3.42
2019-05-25T20:40:05.144Z,3.92
2019-05-25T20:42:35.206Z,3.90
2019-05-25T20:45:03.106Z,3.92
2019-05-25T20:47:31.380Z,3.75
2019-05-25T20:49:58.763Z,3.87
2019-05-25T20:52:26.114Z,3.85
2019-05-25T20:54:53.684Z,4.50
2019-05-25T20:57:25.856Z,4.20
2019-05-25T20:59:56.137Z,4.78
2019-05-25T21:02:23.612Z,5.20
2019-05-25T21:04:50.972Z,4.80
2019-05-25T21:07:18.468Z,5.62
2019-05-25T21:09:48.342Z,5.10
2019-05-25T21:12:17.604Z,5.70
2019-05-25T21:14:46.776Z,5.85
2019-05-25T21:17:14.094Z,6.90
2019-05-25T21:19:41.359Z,7.40
2019-05-25T21:25:04.700Z,7.28
2019-05-25T21:31:36.368Z,6.95
2019-05-25T21:39:31.443Z,6.72
2019-05-25T21:45:20.217Z,6.60
2019-05-25T21:53:50.484Z,6.65
2019-05-25T21:56:17.836Z,7.60
2019-05-25T21:58:45.479Z,7.60
2019-05-25T22:01:15.311Z,10.00
2019-05-25T22:03:42.671Z,8.85
2019-05-25T22:06:24.210Z,8.53
2019-05-25T22:08:47.580Z,8.15
2019-05-25T22:11:15.683Z,8.78
2019-05-25T22:13:43.975Z,8.45
2019-05-25T22:16:11.273Z,12.23
2019-05-25T22:18:38.584Z,11.05
2019-05-25T22:21:05.880Z,10.98
2019-05-25T22:23:33.207Z,12.78
2019-05-25T22:26:00.556Z,11.22
2019-05-25T22:28:43.499Z,10.55
2019-05-25T22:30:56.935Z,9.98
2019-05-25T22:33:24.349Z,9.53
2019-05-25T22:35:51.667Z,8.30
2019-05-25T22:38:18.981Z,8.00
2019-05-25T22:40:54.089Z,8.20
2019-05-25T22:43:25.416Z,7.35
2019-05-25T22:45:52.138Z,5.10
2019-05-25T22:48:19.704Z,7.75
2019-05-25T22:50:51.939Z,7.85
2019-05-25T22:53:20.922Z,7.33
2019-05-25T22:55:50.306Z,8.55
2019-05-25T22:58:17.975Z,7.90
2019-05-25T23:00:46.734Z,7.37
2019-05-25T23:03:14.419Z,8.85
2019-05-25T23:05:41.728Z,7.40
2019-05-25T23:08:12.277Z,7.72
2019-05-25T23:10:39.634Z,7.12
2019-05-25T23:13:07.337Z,7.53
2019-05-25T23:15:34.872Z,8.10
2019-05-25T23:18:02.263Z,8.20
2019-05-25T23:20:29.658Z,8.73
2019-05-25T23:22:57.032Z,8.75
2019-05-25T23:25:29.129Z,9.63
2019-05-25T23:27:56.718Z,9.38
2019-05-25T23:30:24.032Z,9.50
2019-05-25T23:32:51.426Z,9.20
2019-05-25T23:35:20.876Z,10.08
2019-05-25T23:37:48.387Z,9.83
2019-05-25T23:40:17.833Z,9.70
2019-05-25T23:42:45.420Z,9.33
2019-05-25T23:45:12.627Z,9.90
2019-05-25T23:47:40.116Z,10.30
